createdAt,value
2022-12-09T00:06:46.598Z,-0.2
2022-12-09T00:16:46.685Z,-0.3
2022-12-09T00:26:46.558Z,-0.6
2022-12-09T00:36:46.576Z,-0.4
2022-12-09T00:46:46.771Z,-0.3
2022-12-09T00:56:46.920Z,-0.3
2022-12-09T01:06:46.683Z,-0.2
2022-12-09T01:26:46.747Z,-0.2
2022-12-09T01:36:46.784Z,-0.2
2022-12-09T01:46:47.033Z,-0.4
2022-12-09T01:56:46.996Z,-0.3
2022-12-09T02:06:46.844Z,-0.1
2022-12-09T02:16:46.979Z,-0.2
2022-12-09T02:26:46.964Z,-0.3
2022-12-09T02:36:47.156Z,-0.2
2022-12-09T02:56:47.298Z,-0.2
2022-12-09T03:06:46.990Z,-0.3
2022-12-09T03:16:47.165Z,-0.4
2022-12-09T03:26:47.045Z,-0.3
2022-12-09T03:46:47.547Z,-0.1
2022-12-09T03:56:47.455Z,-0.4
2022-12-09T04:06:47.636Z,-0.6
2022-12-09T04:26:47.437Z,-0.6
2022-12-09T04:36:47.260Z,-0.7
2022-12-09T04:56:47.362Z,-0.8
2022-12-09T05:06:47.446Z,-1
2022-12-09T05:16:47.434Z,-1.1
2022-12-09T05:26:47.493Z,-1.4
2022-12-09T05:36:47.551Z,-1.5
2022-12-09T05:46:47.917Z,-1.2
2022-12-09T05:56:48.881Z,-1.6
2022-12-09T06:06:47.978Z,-1.8
2022-12-09T06:26:47.729Z,-1.6
2022-12-09T06:36:48.052Z,-1.6
2022-12-09T06:46:47.987Z,-1.3
2022-12-09T06:56:47.828Z,-1.3
2022-12-09T07:06:48.039Z,-1.5
2022-12-09T07:16:48.138Z,-1.8
2022-12-09T07:36:48.177Z,-1.6
2022-12-09T07:46:48.001Z,-1.2
2022-12-09T07:56:48.146Z,-0.3
2022-12-09T08:06:48.265Z,2.1
2022-12-09T08:16:48.479Z,4.6
2022-12-09T08:26:48.065Z,6.3
2022-12-09T08:36:48.337Z,3.9
2022-12-09T08:46:48.421Z,1.4
2022-12-09T08:56:48.470Z,0
2022-12-09T09:06:48.437Z,2
2022-12-09T09:16:48.411Z,1.9
2022-12-09T09:26:48.466Z,2.6
2022-12-09T09:36:48.477Z,1.9
2022-12-09T09:46:48.827Z,3
2022-12-09T10:06:48.958Z,1.7
2022-12-09T10:16:48.533Z,0.6
2022-12-09T10:26:48.284Z,0.4
2022-12-09T10:36:48.689Z,1.1
2022-12-09T10:46:48.682Z,1.3
2022-12-09T10:56:48.697Z,4.1
2022-12-09T11:06:53.992Z,1.4
2022-12-09T11:16:48.500Z,2.1
2022-12-09T11:26:48.486Z,3.4
2022-12-09T11:36:48.407Z,5.7
2022-12-09T11:46:48.495Z,4.8
2022-12-09T11:56:48.451Z,5.6
2022-12-09T12:06:48.504Z,1.9
2022-12-09T12:16:48.490Z,1
2022-12-09T12:26:48.576Z,1
2022-12-09T12:46:48.616Z,1.7
2022-12-09T12:56:48.616Z,1.7
2022-12-09T13:06:48.648Z,1.8
2022-12-09T13:16:48.721Z,2
2022-12-09T13:26:48.710Z,1.3
2022-12-09T13:36:48.707Z,1.3
2022-12-09T13:46:48.764Z,0.7
2022-12-09T13:56:48.731Z,-0.5
2022-12-09T14:06:48.806Z,-0.5
2022-12-09T14:16:48.803Z,-0.2
2022-12-09T14:26:48.874Z,-0.3
2022-12-09T14:46:49.306Z,-0.5
2022-12-09T14:56:48.929Z,-0.6
2022-12-09T15:06:48.990Z,-0.8
2022-12-09T15:26:49.053Z,-0.7
2022-12-09T15:36:49.017Z,-0.7
2022-12-09T15:56:49.085Z,-0.7
2022-12-09T16:06:49.116Z,-0.3
2022-12-09T16:16:49.157Z,-0.5
2022-12-09T16:26:49.151Z,-0.7
2022-12-09T16:36:49.203Z,-1.6
2022-12-09T16:46:49.224Z,-1.4
2022-12-09T16:56:49.272Z,-1.4
2022-12-09T17:16:49.401Z,-1.3
2022-12-09T17:26:49.318Z,-1.7
2022-12-09T17:36:49.394Z,-1.8
2022-12-09T18:06:49.474Z,-2.3
2022-12-09T18:16:49.601Z,-2.6
2022-12-09T18:26:49.519Z,-2.7
2022-12-09T19:06:49.667Z,-2.8
2022-12-09T19:16:49.670Z,-2.8
2022-12-09T19:26:49.699Z,-3
2022-12-09T19:36:49.719Z,-2.6
2022-12-09T20:06:49.849Z,-3.4
2022-12-09T20:16:49.851Z,-3.1
2022-12-09T20:36:49.975Z,-3
2022-12-09T20:46:49.964Z,-2.9
2022-12-09T21:16:50.312Z,-2.6
2022-12-09T21:26:50.057Z,-2.5
2022-12-09T21:56:50.177Z,-2.9
2022-12-09T22:16:50.288Z,-3.6
2022-12-09T22:26:50.288Z,-3.8
2022-12-09T22:36:50.317Z,-3.9
2022-12-09T22:46:50.311Z,-4.2
2022-12-09T22:56:50.384Z,-4.3
2022-12-09T23:06:50.374Z,-3.9
2022-12-09T23:16:50.432Z,-3.3
2022-12-09T23:26:50.433Z,-3.6
2022-12-09T23:36:50.512Z,-4.4
2022-12-09T23:46:50.563Z,-4.9
2022-12-09T23:56:50.572Z,-4.9
